createdAt,value
2022-11-17T05:08:45.528Z,95.70
2022-11-17T05:12:00.082Z,95.70
2022-11-17T05:16:02.016Z,95.70
2022-11-17T05:18:42.647Z,95.80
2022-11-17T05:21:46.141Z,95.80
2022-11-17T05:24:25.046Z,95.80
2022-11-17T05:27:04.683Z,95.70
2022-11-17T09:51:58.328Z,95.50
2022-11-17T09:55:10.957Z,95.50
2022-11-17T10:00:58.100Z,95.40
2022-11-17T10:07:06.937Z,95.40
2022-11-17T10:10:15.090Z,95.40
2022-11-17T10:16:42.343Z,95.40
2022-11-17T10:19:58.159Z,95.30
2022-11-17T10:22:43.158Z,95.30
2022-11-17T10:29:46.544Z,95.30
2022-11-17T10:32:32.623Z,95.30
2022-11-17T10:36:07.028Z,95.20
2022-11-17T10:38:47.777Z,95.20
2022-11-17T10:41:40.163Z,95.10
2022-11-17T10:48:49.957Z,94.90
2022-11-17T10:51:37.510Z,94.80
2022-11-17T10:54:22.617Z,94.80
2022-11-17T10:56:57.212Z,94.80
2022-11-17T10:59:57.658Z,94.80
2022-11-17T11:02:35.954Z,94.70
2022-11-17T11:05:23.555Z,94.70
2022-11-17T11:07:57.763Z,94.70
2022-11-17T11:10:43.659Z,94.60
2022-11-17T11:13:39.007Z,94.50
2022-11-17T11:16:33.260Z,94.50
2022-11-17T11:19:35.155Z,94.40
2022-11-17T11:22:06.311Z,94.30
2022-11-17T11:24:45.507Z,94.30
2022-11-17T11:28:40.093Z,94.30
2022-11-17T11:31:43.516Z,94.30
2022-11-17T11:34:29.954Z,94.30
2022-11-17T11:37:12.406Z,94.30
2022-11-17T11:40:15.582Z,94.30
2022-11-17T11:43:42.168Z,94.30
2022-11-17T11:46:49.513Z,94.30
2022-11-17T11:53:22.267Z,94.40
2022-11-17T11:56:23.836Z,94.50
2022-11-17T11:59:33.493Z,94.50
